Time;durP1;ratioP1;P1;durP2;ratioP2;P2;SDS_P1;SDS_P2;PMS_P1;PMS_P2;Temp;Humidity;BMP_temperature;BMP_pressure;BME280_temperature;BME280_humidity;BME280_pressure;Samples;Min_cycle;Max_cycle;Signal;HPM_P1;HPM_P2
2024/04/24 05:46:39;;;;;;;14.32;9.75;;;;;;;;;;6105233;22;20074;-83
2024/04/24 05:49:04;;;;;;;14.00;11.20;;;;;;;;;;5213159;27;20366;-83
2024/04/24 05:51:30;;;;;;;12.90;9.95;;;;;;;;;;5213415;27;20000;-82
2024/04/24 05:53:55;;;;;;;12.60;9.50;;;;;;;;;;5184601;27;20007;-84
2024/04/24 05:56:20;;;;;;;13.73;9.60;;;;;;;;;;5213384;27;20078;-83
2024/04/24 05:58:46;;;;;;;14.40;10.52;;;;;;;;;;5213739;27;20015;-83
2024/04/24 06:01:12;;;;;;;13.10;10.02;;;;;;;;;;5213398;27;20000;-82
2024/04/24 06:03:37;;;;;;;10.40;9.00;;;;;;;;;;5212848;27;20168;-81
2024/04/24 06:06:03;;;;;;;13.30;9.23;;;;;;;;;;5213164;27;20447;-82
2024/04/24 06:08:28;;;;;;;10.57;8.32;;;;;;;;;;5184307;27;20019;-82
2024/04/24 06:10:53;;;;;;;10.13;8.48;;;;;;;;;;5213355;27;19999;-82
2024/04/24 06:13:19;;;;;;;9.70;7.65;;;;;;;;;;5213135;27;20015;-81
2024/04/24 06:15:44;;;;;;;9.93;7.63;;;;;;;;;;5213512;27;20004;-81
2024/04/24 06:18:10;;;;;;;11.43;8.68;;;;;;;;;;5213209;27;20371;-81
2024/04/24 09:45:26;;;;;;;25.53;17.87;;;;;;;;;;5276306;27;19999;-82
2024/04/24 09:47:52;;;;;;;21.90;16.70;;;;;;;;;;5278975;27;20026;-82
2024/04/24 09:50:17;;;;;;;21.13;16.58;;;;;;;;;;5280188;27;20069;-82
2024/04/24 09:52:46;;;;;;;22.00;16.95;;;;;;;;;;5251179;27;20003;-80
2024/04/24 09:55:13;;;;;;;18.83;15.65;;;;;;;;;;5246510;27;20069;-81
2024/04/24 09:57:39;;;;;;;19.20;15.40;;;;;;;;;;5245056;27;20065;-81
2024/04/24 10:00:05;;;;;;;20.67;15.90;;;;;;;;;;5246918;27;20018;-81
2024/04/24 10:02:35;;;;;;;21.60;16.47;;;;;;;;;;5246686;27;20003;-81
2024/04/24 10:05:13;;;;;;;;;;;;;;;;;;5247321;27;20014;-80
2024/04/24 10:07:41;;;;;;;;;;;;;;;;;;5247360;27;19939;-80
2024/04/24 10:10:09;;;;;;;17.48;14.68;;;;;;;;;;5245170;27;20315;-82
2024/04/24 10:12:42;;;;;;;18.73;15.60;;;;;;;;;;5246231;27;20015;-81
2024/04/24 10:15:08;;;;;;;;;;;;;;;;;;5246694;27;20454;-82
2024/04/24 10:17:35;;;;;;;;;;;;;;;;;;5247196;27;19928;-82
2024/04/24 10:20:01;;;;;;;;;;;;;;;;;;5245404;27;20251;-82
2024/04/24 10:22:27;;;;;;;20.30;15.70;;;;;;;;;;5246956;27;20371;-81
2024/04/24 10:24:54;;;;;;;20.50;15.63;;;;;;;;;;5246827;27;20335;-81
2024/04/24 10:27:20;;;;;;;20.45;16.45;;;;;;;;;;5246401;27;20003;-79
2024/04/24 10:29:48;;;;;;;17.52;14.43;;;;;;;;;;5246334;27;20002;-79
2024/04/24 10:32:17;;;;;;;18.90;15.02;;;;;;;;;;5246392;27;20028;-81
2024/04/24 10:34:44;;;;;;;18.65;14.13;;;;;;;;;;5246315;27;19999;-81
2024/04/24 10:37:10;;;;;;;17.95;13.85;;;;;;;;;;5246431;27;20010;-81
2024/04/24 10:39:44;;;;;;;15.48;13.40;;;;;;;;;;5246370;27;19999;-82
2024/04/24 10:42:10;;;;;;;14.90;12.70;;;;;;;;;;5246397;27;20006;-82
2024/04/24 10:44:37;;;;;;;16.95;13.95;;;;;;;;;;5246826;27;19999;-82
2024/04/24 10:47:02;;;;;;;15.60;12.35;;;;;;;;;;5250049;27;19998;-82
2024/04/24 10:49:28;;;;;;;14.75;12.63;;;;;;;;;;5279756;27;20010;-80
2024/04/24 10:51:53;;;;;;;19.17;14.27;;;;;;;;;;5279729;27;19998;-80
2024/04/24 10:54:19;;;;;;;18.95;15.80;;;;;;;;;;5279956;27;20009;-79
2024/04/24 10:56:48;;;;;;;18.48;14.32;;;;;;;;;;5279925;27;20041;-83
2024/04/24 10:59:14;;;;;;;19.90;15.18;;;;;;;;;;5280174;27;20030;-88
2024/04/24 11:01:45;;;;;;;20.20;15.15;;;;;;;;;;5248991;27;20014;-88
2024/04/24 11:04:12;;;;;;;19.67;14.75;;;;;;;;;;5249367;27;20002;-81
2024/04/24 11:06:39;;;;;;;20.58;14.70;;;;;;;;;;5278926;27;20006;-82
2024/04/24 11:09:04;;;;;;;19.88;14.43;;;;;;;;;;5279519;27;20017;-82
2024/04/24 11:11:31;;;;;;;19.48;13.65;;;;;;;;;;5279589;27;20345;-82
2024/04/24 11:14:06;;;;;;;16.90;13.55;;;;;;;;;;5279472;27;19998;-82
2024/04/24 11:16:32;;;;;;;21.10;14.27;;;;;;;;;;5279139;27;19998;-82
2024/04/24 11:18:57;;;;;;;21.25;16.30;;;;;;;;;;5279423;27;20076;-82
2024/04/24 11:21:24;;;;;;;18.65;14.00;;;;;;;;;;5279021;27;20076;-82
2024/04/24 11:23:53;;;;;;;24.40;16.52;;;;;;;;;;5278997;27;20002;-83
2024/04/24 11:26:48;;;;;;;21.58;16.05;;;;;;;;;;5249536;27;20460;-83
2024/04/24 11:29:13;;;;;;;17.08;13.80;;;;;;;;;;5221471;27;19998;-83
2024/04/24 11:31:45;;;;;;;22.08;15.57;;;;;;;;;;5249123;27;20009;-82
2024/04/24 11:34:12;;;;;;;18.58;15.05;;;;;;;;;;5279092;27;20010;-83
2024/04/24 11:36:39;;;;;;;21.23;15.75;;;;;;;;;;5249124;27;20009;-82
2024/04/24 11:39:05;;;;;;;21.60;15.80;;;;;;;;;;5279162;27;20341;-82
2024/04/24 11:41:31;;;;;;;20.00;14.73;;;;;;;;;;5278964;27;19998;-82
2024/04/24 11:43:56;;;;;;;20.50;14.90;;;;;;;;;;5279279;27;20437;-82
2024/04/24 11:46:23;;;;;;;17.85;13.32;;;;;;;;;;5278810;27;19998;-82
2024/04/24 11:48:53;;;;;;;19.80;14.00;;;;;;;;;;5279188;27;20003;-82
2024/04/24 16:25:00;;;;;;;;;;;;;;;;;;5261300;27;20366;-81
2024/04/24 16:27:25;;;;;;;;;;;;;;;;;;5243627;27;19935;-82
2024/04/24 16:29:51;;;;;;;;;;;;;;;;;;5245414;27;20318;-82
2024/04/24 16:32:16;;;;;;;;;;;;;;;;;;5245139;27;19928;-84
2024/04/24 16:34:44;;;;;;;;;;;;;;;;;;5243421;27;19935;-82
2024/04/24 16:37:12;;;;;;;;;;;;;;;;;;5245058;27;19934;-81
2024/04/24 16:39:39;;;;;;;;;;;;;;;;;;5243477;27;19936;-82
2024/04/24 16:42:04;;;;;;;;;;;;;;;;;;5244797;27;19943;-81
2024/04/24 16:44:30;;;;;;;;;;;;;;;;;;5245274;27;19929;-81
2024/04/24 16:46:57;;;;;;;;;;;;;;;;;;5244880;27;19986;-82
2024/04/24 16:49:24;;;;;;;;;;;;;;;;;;5245021;27;19927;-81
2024/04/24 16:51:50;;;;;;;;;;;;;;;;;;5244684;27;19927;-82
2024/04/24 16:54:15;;;;;;;;;;;;;;;;;;5245093;27;19935;-82
2024/04/24 16:56:41;;;;;;;;;;;;;;;;;;5244660;27;19930;-81
2024/04/24 16:59:06;;;;;;;;;;;;;;;;;;5245989;27;19928;-82
2024/04/24 17:01:34;;;;;;;;;;;;;;;;;;5248303;27;19935;-82
2024/04/24 17:04:00;;;;;;;;;;;;;;;;;;5248217;27;20446;-82
2024/04/24 17:06:26;;;;;;;;;;;;;;;;;;5248210;27;19951;-82
2024/04/24 17:08:51;;;;;;;;;;;;;;;;;;5248081;27;19938;-82
2024/04/24 17:11:17;;;;;;;;;;;;;;;;;;5247826;27;20375;-82
2024/04/24 17:13:42;;;;;;;;;;;;;;;;;;5247997;27;19927;-83
2024/04/24 17:16:08;;;;;;;;;;;;;;;;;;5246088;27;19990;-84
2024/04/24 17:18:34;;;;;;;;;;;;;;;;;;5246008;27;19927;-84
2024/04/24 17:20:59;;;;;;;;;;;;;;;;;;5244247;27;19941;-81
2024/04/24 17:23:25;;;;;;;;;;;;;;;;;;5247193;27;20286;-82
2024/04/24 17:25:50;;;;;;;;;;;;;;;;;;5273976;27;19934;-82
2024/04/24 17:28:15;;;;;;;;;;;;;;;;;;5281559;27;19933;-81
2024/04/24 17:30:40;;;;;;;;;;;;;;;;;;5281061;27;20270;-82
2024/04/24 17:33:06;;;;;;;;;;;;;;;;;;5281376;27;19935;-83
2024/04/24 17:35:31;;;;;;;;;;;;;;;;;;5245648;27;19935;-81
2024/04/24 17:37:57;;;;;;;;;;;;;;;;;;5251949;27;19934;-82
2024/04/24 17:40:23;;;;;;;;;;;;;;;;;;5281174;27;19939;-81
2024/04/24 17:42:48;;;;;;;;;;;;;;;;;;5281168;27;20243;-81
2024/04/24 17:45:13;;;;;;;;;;;;;;;;;;5280950;27;19927;-81
2024/04/24 17:47:39;;;;;;;;;;;;;;;;;;5281054;27;19934;-82
2024/04/24 17:50:05;;;;;;;;;;;;;;;;;;5281026;27;19934;-82
2024/04/24 17:52:31;;;;;;;;;;;;;;;;;;5281163;27;19966;-83
2024/04/24 17:54:56;;;;;;;;;;;;;;;;;;5280810;27;19934;-82
2024/04/24 17:57:22;;;;;;;;;;;;;;;;;;5251019;27;19931;-82
2024/04/24 17:59:47;;;;;;;;;;;;;;;;;;5281014;27;19934;-82
2024/04/24 18:02:12;;;;;;;;;;;;;;;;;;5280922;27;19934;-81
2024/04/24 18:04:37;;;;;;;;;;;;;;;;;;5250996;27;19927;-82
2024/04/24 18:07:03;;;;;;;;;;;;;;;;;;5280809;27;20002;-81
2024/04/24 18:09:30;;;;;;;;;;;;;;;;;;5280570;27;19927;-81
2024/04/24 18:11:56;;;;;;;;;;;;;;;;;;5280838;27;19927;-81
2024/04/24 18:14:21;;;;;;;;;;;;;;;;;;5280740;27;19934;-81
2024/04/24 18:16:46;;;;;;;;;;;;;;;;;;5280769;27;20357;-81
2024/04/24 18:19:12;;;;;;;;;;;;;;;;;;5280897;27;19934;-80
2024/04/24 18:21:37;;;;;;;;;;;;;;;;;;5280526;27;20006;-79
2024/04/24 18:24:02;;;;;;;;;;;;;;;;;;5280576;27;19927;-80
2024/04/24 18:26:27;;;;;;;;;;;;;;;;;;5280915;27;19927;-80
2024/04/24 18:28:53;;;;;;;;;;;;;;;;;;5280609;27;19933;-82
2024/04/24 18:31:18;;;;;;;;;;;;;;;;;;5280663;27;19927;-85
2024/04/24 18:33:43;;;;;;;;;;;;;;;;;;5280698;27;19927;-87
2024/04/24 18:36:09;;;;;;;;;;;;;;;;;;5280540;27;19934;-83
2024/04/24 18:38:34;;;;;;;;;;;;;;;;;;5280785;27;19997;-81
2024/04/24 18:40:59;;;;;;;;;;;;;;;;;;5280533;27;19936;-81
2024/04/24 18:43:25;;;;;;;;;;;;;;;;;;5280521;27;19926;-82
2024/04/24 18:45:50;;;;;;;;;;;;;;;;;;5280718;27;20368;-82
2024/04/24 18:48:15;;;;;;;;;;;;;;;;;;5250408;27;19930;-85
2024/04/24 18:50:40;;;;;;;;;;;;;;;;;;5280361;27;19931;-83
2024/04/24 18:53:06;;;;;;;;;;;;;;;;;;5280314;27;19934;-83
2024/04/24 18:55:31;;;;;;;;;;;;;;;;;;5280547;27;19931;-84
2024/04/24 18:57:56;;;;;;;;;;;;;;;;;;5250496;27;19926;-84
2024/04/24 19:00:22;;;;;;;;;;;;;;;;;;5280167;27;19929;-84
2024/04/24 19:02:48;;;;;;;;;;;;;;;;;;5280191;27;19933;-84
2024/04/24 19:05:15;;;;;;;;;;;;;;;;;;5280291;27;19935;-84
2024/04/24 19:07:43;;;;;;;;;;;;;;;;;;5280149;27;19927;-84
2024/04/24 19:10:09;;;;;;;;;;;;;;;;;;5250342;27;20254;-84
2024/04/24 19:12:34;;;;;;;;;;;;;;;;;;5279963;27;19955;-83
2024/04/24 19:15:00;;;;;;;;;;;;;;;;;;5250171;27;19927;-84
2024/04/24 19:17:25;;;;;;;;;;;;;;;;;;5279948;27;20294;-85
2024/04/24 19:19:51;;;;;;;;;;;;;;;;;;5280083;27;20351;-85
2024/04/24 19:22:16;;;;;;;;;;;;;;;;;;5278917;27;19933;-88
2024/04/24 19:24:41;;;;;;;;;;;;;;;;;;5280019;27;19934;-89
2024/04/24 19:27:07;;;;;;;;;;;;;;;;;;5280193;27;20248;-88
2024/04/24 19:29:32;;;;;;;;;;;;;;;;;;5250718;27;20420;-88
2024/04/24 19:31:58;;;;;;;;;;;;;;;;;;5250675;27;19927;-90
2024/04/24 19:34:23;;;;;;;;;;;;;;;;;;5280004;27;19927;-85
2024/04/24 19:36:48;;;;;;;;;;;;;;;;;;5277737;27;19934;-84
2024/04/24 19:39:13;;;;;;;;;;;;;;;;;;5248893;27;19933;-84
2024/04/24 19:41:39;;;;;;;;;;;;;;;;;;5244061;27;19938;-83
2024/04/24 19:44:04;;;;;;;;;;;;;;;;;;5219903;27;19934;-84
2024/04/24 19:46:30;;;;;;;;;;;;;;;;;;5279511;27;19939;-84
2024/04/24 19:48:55;;;;;;;;;;;;;;;;;;5249563;27;20254;-84
2024/04/24 19:51:21;;;;;;;;;;;;;;;;;;5279245;27;19927;-85
2024/04/24 19:53:46;;;;;;;;;;;;;;;;;;5279275;27;19934;-83
2024/04/24 19:56:11;;;;;;;;;;;;;;;;;;5279255;27;19939;-84
2024/04/24 19:58:37;;;;;;;;;;;;;;;;;;5279343;27;19933;-84
2024/04/24 20:01:08;;;;;;;;;;;;;;;;;;5279084;27;19927;-85
2024/04/24 20:03:33;;;;;;;;;;;;;;;;;;5279270;27;20330;-85
2024/04/24 20:06:05;;;;;;;;;;;;;;;;;;5279282;27;19964;-83
2024/04/24 20:08:31;;;;;;;;;;;;;;;;;;5279469;27;20360;-83
2024/04/24 20:11:06;;;;;;;;;;;;;;;;;;5248697;27;19927;-85
2024/04/24 20:13:31;;;;;;;;;;;;;;;;;;5279015;27;19927;-83
2024/04/24 20:16:06;;;;;;;;;;;;;;;;;;5279075;27;19942;-84
2024/04/24 20:18:35;;;;;;;;;;;;;;;;;;5278962;27;19927;-84
2024/04/24 20:21:00;;;;;;;;;;;;;;;;;;5278613;27;19997;-84
2024/04/24 20:23:26;;;;;;;;;;;;;;;;;;5249149;27;20344;-85
2024/04/24 20:25:51;;;;;;;;;;;;;;;;;;5278903;27;19927;-85
2024/04/24 20:28:16;;;;;;;;;;;;;;;;;;5278718;27;19942;-82
2024/04/24 20:30:42;;;;;;;;;;;;;;;;;;5278639;27;19935;-83
2024/04/24 20:33:07;;;;;;;;;;;;;;;;;;5249877;27;20010;-83
2024/04/24 20:35:33;;;;;;;;;;;;;;;;;;5251750;27;21683;-85
2024/04/24 20:37:58;;;;;;;;;;;;;;;;;;5281954;27;19927;-84
2024/04/24 20:40:23;;;;;;;;;;;;;;;;;;5252025;27;20354;-85
2024/04/24 20:42:52;;;;;;;;;;;;;;;;;;5281806;27;19934;-85
2024/04/24 20:45:20;;;;;;;;;;;;;;;;;;5281720;27;19959;-84
2024/04/24 20:47:45;;;;;;;;;;;;;;;;;;5282089;27;19934;-84
2024/04/24 20:50:11;;;;;;;;;;;;;;;;;;5282087;27;19927;-86
2024/04/24 20:52:36;;;;;;;;;;;;;;;;;;5282289;27;19938;-85
2024/04/24 20:55:02;;;;;;;;;;;;;;;;;;5251990;27;19927;-86
2024/04/24 20:57:28;;;;;;;;;;;;;;;;;;5252152;27;20005;-86
2024/04/24 20:59:54;;;;;;;;;;;;;;;;;;5252138;27;19927;-86
2024/04/24 21:02:20;;;;;;;;;;;;;;;;;;5281892;27;19927;-86
2024/04/24 21:04:45;;;;;;;;;;;;;;;;;;5251801;27;19959;-86
2024/04/24 21:07:10;;;;;;;;;;;;;;;;;;5251931;27;19969;-86
2024/04/24 21:09:37;;;;;;;;;;;;;;;;;;5282101;27;19927;-86
2024/04/24 21:12:02;;;;;;;;;;;;;;;;;;5250116;27;19927;-86
2024/04/24 21:14:28;;;;;;;;;;;;;;;;;;5251030;27;19998;-86
2024/04/24 21:16:53;;;;;;;;;;;;;;;;;;5251583;27;19935;-87
2024/04/24 21:19:18;;;;;;;;;;;;;;;;;;5281990;27;20350;-85
2024/04/24 21:21:44;;;;;;;;;;;;;;;;;;5281335;27;20354;-85
2024/04/24 21:24:09;;;;;;;;;;;;;;;;;;5281265;27;19958;-86
2024/04/24 21:26:35;;;;;;;;;;;;;;;;;;5281765;27;19934;-85
2024/04/24 21:29:00;;;;;;;;;;;;;;;;;;5251783;27;19927;-86
2024/04/24 21:31:26;;;;;;;;;;;;;;;;;;5251414;27;20001;-87
2024/04/24 21:33:51;;;;;;;;;;;;;;;;;;5251471;27;19927;-86
2024/04/24 21:36:16;;;;;;;;;;;;;;;;;;5251377;27;20001;-86
2024/04/24 21:38:42;;;;;;;;;;;;;;;;;;5251379;27;19927;-87
2024/04/24 21:41:18;;;;;;;;;;;;;;;;;;5281099;27;19934;-86
2024/04/24 21:43:43;;;;;;;;;;;;;;;;;;5251417;27;19934;-86
2024/04/24 21:46:09;;;;;;;;;;;;;;;;;;5250838;27;20263;-86
2024/04/24 21:48:34;;;;;;;;;;;;;;;;;;5251276;27;19934;-86
2024/04/24 21:50:59;;;;;;;;;;;;;;;;;;5281121;27;19927;-85
2024/04/24 21:53:26;;;;;;;;;;;;;;;;;;5281280;27;20524;-85
2024/04/24 21:55:51;;;;;;;;;;;;;;;;;;5251305;27;19951;-86
2024/04/24 21:58:17;;;;;;;;;;;;;;;;;;5281478;27;19927;-86
2024/04/24 22:00:42;;;;;;;;;;;;;;;;;;5281280;27;19927;-86
2024/04/24 22:03:07;;;;;;;;;;;;;;;;;;5251430;27;19934;-86
2024/04/24 22:05:33;;;;;;;;;;;;;;;;;;5251156;27;19926;-86
2024/04/24 22:07:58;;;;;;;;;;;;;;;;;;5251433;27;19934;-86
2024/04/24 22:10:24;;;;;;;;;;;;;;;;;;5251034;27;19927;-86
2024/04/24 22:12:49;;;;;;;;;;;;;;;;;;5280888;27;19927;-86
2024/04/24 22:15:14;;;;;;;7.30;5.40;;;;;;;;;;5280749;27;20358;-86
2024/04/24 22:17:40;;;;;;;10.02;5.40;;;;;;;;;;5280143;27;20009;-85
2024/04/24 22:20:06;;;;;;;8.00;4.95;;;;;;;;;;5250592;27;20009;-85
2024/04/24 22:22:31;;;;;;;6.88;5.65;;;;;;;;;;5279966;27;19994;-86
2024/04/24 22:24:56;;;;;;;7.05;5.97;;;;;;;;;;5250250;27;20002;-85
2024/04/24 22:27:22;;;;;;;7.35;5.10;;;;;;;;;;5280187;27;19999;-86
2024/04/24 22:29:47;;;;;;;5.82;5.25;;;;;;;;;;5280229;27;20012;-85
2024/04/24 22:32:13;;;;;;;5.60;4.90;;;;;;;;;;5280229;27;20006;-85
2024/04/24 22:34:42;;;;;;;5.13;4.63;;;;;;;;;;5280455;27;20400;-86
2024/04/24 22:37:07;;;;;;;5.43;4.65;;;;;;;;;;5250051;27;20005;-85
2024/04/24 22:39:32;;;;;;;5.22;4.10;;;;;;;;;;5280076;27;20010;-85
2024/04/24 22:41:58;;;;;;;4.30;3.75;;;;;;;;;;5279894;27;20527;-85
2024/04/24 22:44:23;;;;;;;4.55;4.07;;;;;;;;;;5250244;27;20082;-86
2024/04/24 22:46:49;;;;;;;5.28;4.28;;;;;;;;;;5250357;27;20006;-86
2024/04/24 22:49:14;;;;;;;4.25;3.85;;;;;;;;;;5280029;27;20014;-85
2024/04/24 22:51:40;;;;;;;4.40;4.00;;;;;;;;;;5279956;27;20018;-85
2024/04/24 22:54:05;;;;;;;4.47;3.95;;;;;;;;;;5249899;27;19934;-85
2024/04/24 22:56:32;;;;;;;5.03;4.30;;;;;;;;;;5278538;27;20013;-85
2024/04/24 22:58:57;;;;;;;6.00;4.53;;;;;;;;;;5280086;27;20009;-85
2024/04/24 23:01:23;;;;;;;5.33;4.17;;;;;;;;;;5279809;27;20330;-85
2024/04/24 23:03:48;;;;;;;5.13;4.38;;;;;;;;;;5279791;27;20487;-85
2024/04/24 23:06:14;;;;;;;7.03;4.70;;;;;;;;;;5250126;27;20014;-86
2024/04/24 23:08:41;;;;;;;5.55;4.88;;;;;;;;;;5249776;27;20076;-85
2024/04/24 23:11:07;;;;;;;6.63;4.90;;;;;;;;;;5279462;27;20009;-85
2024/04/24 23:13:32;;;;;;;;;;;;;;;;;;5279986;27;20002;-84
2024/04/24 23:15:58;;;;;;;;;;;;;;;;;;5280128;27;19927;-86
